Terminal Aerodrome Forecast
Issued by NWS Spokane, WA

Home | Current Version | Previous Version | Text Only | Print | Product List | Glossary On
Versions: 1 2 3 4 5 6 7 8 9 10 11 12 13 14 15 16 17 18 19 20 21 22 23 24 25 26 27 28 29 30 31 32 33 34
000
FTUS46 KOTX 222341
TAFGEG
TAF
KGEG 222341Z 2300/2324 05005KT P6SM SCT050 BKN070
     FM230600 17012KT P6SM -SHRA SCT025 OVC040
     FM231000 20008KT P6SM SCT006 BKN013 OVC080 WS015/23040KT
      TEMPO 2312/2316 BKN006 OVC013
     FM231800 21015KT P6SM -RA SCT015 OVC020
     FM232100 23020G38KT P6SM VCSH BKN020 BKN060=

USA.gov is the U.S. government's official web portal to all federal, state and local government web resources and services.